createdAt,value
2019-04-04T00:06:31.999Z,12.33
2019-04-04T00:09:02.639Z,13.73
2019-04-04T00:11:32.597Z,12.43
2019-04-04T00:14:02.451Z,12.30
2019-04-04T00:16:32.321Z,13.00
2019-04-04T00:19:02.221Z,13.60
2019-04-04T00:21:33.799Z,13.07
2019-04-04T00:24:03.563Z,12.67
2019-04-04T00:26:33.526Z,13.83
2019-04-04T00:29:03.465Z,12.90
2019-04-04T00:31:33.268Z,13.77
2019-04-04T00:34:03.214Z,14.83
2019-04-04T00:36:34.708Z,14.37
2019-04-04T00:39:09.105Z,14.43
2019-04-04T00:41:38.086Z,13.37
2019-04-04T00:44:08.008Z,14.30
2019-04-04T00:46:37.880Z,14.50
2019-04-04T00:49:07.775Z,13.67
2019-04-04T00:51:39.063Z,14.23
2019-04-04T00:54:09.347Z,14.00
2019-04-04T00:56:39.204Z,15.07
2019-04-04T00:59:11.204Z,15.70
2019-04-04T01:01:41.315Z,13.23
2019-04-04T01:04:11.162Z,14.40
2019-04-04T01:06:40.972Z,14.60
2019-04-04T01:09:13.172Z,14.00
2019-04-04T01:11:42.245Z,15.33
2019-04-04T01:14:12.151Z,13.53
2019-04-04T01:16:41.969Z,14.60
2019-04-04T01:19:11.937Z,13.80
2019-04-04T01:21:41.837Z,15.13
2019-04-04T01:24:11.852Z,14.73
2019-04-04T01:26:41.659Z,14.63
2019-04-04T01:29:11.525Z,14.37
2019-04-04T01:31:41.497Z,14.97
2019-04-04T01:34:11.395Z,15.20
2019-04-04T01:36:41.282Z,15.30
2019-04-04T01:39:11.398Z,15.37
2019-04-04T01:41:41.358Z,14.77
2019-04-04T01:44:11.761Z,14.53
2019-04-04T01:46:41.786Z,14.67
2019-04-04T01:49:11.739Z,15.63
2019-04-04T01:51:41.609Z,15.17
2019-04-04T01:54:11.492Z,15.47
2019-04-04T01:56:41.368Z,14.47
2019-04-04T01:59:12.254Z,14.20
2019-04-04T02:01:42.884Z,15.50
2019-04-04T02:04:12.803Z,14.87
2019-04-04T02:06:42.645Z,14.90
2019-04-04T02:09:12.546Z,14.33
2019-04-04T02:11:42.421Z,14.23
2019-04-04T02:14:12.487Z,15.03
2019-04-04T02:16:42.517Z,14.77
2019-04-04T02:19:12.436Z,13.97
2019-04-04T02:21:42.253Z,16.63
2019-04-04T02:24:12.230Z,15.07
2019-04-04T02:26:42.177Z,14.83
2019-04-04T02:29:12.239Z,16.03
2019-04-04T02:31:46.046Z,14.90
2019-04-04T02:34:15.933Z,14.73
2019-04-04T02:36:48.735Z,16.50
2019-04-04T02:39:18.334Z,15.17
2019-04-04T02:41:49.195Z,14.90
2019-04-04T02:44:19.306Z,15.00
2019-04-04T02:46:49.362Z,14.93
2019-04-04T02:49:19.605Z,14.77
2019-04-04T02:51:49.492Z,15.93
2019-04-04T02:54:24.076Z,14.53
2019-04-04T02:56:51.144Z,14.80
2019-04-04T02:59:22.001Z,13.73
2019-04-04T03:01:52.316Z,13.77
2019-04-04T03:04:22.233Z,15.77
2019-04-04T03:06:55.014Z,15.27
2019-04-04T03:09:23.931Z,15.30
2019-04-04T03:11:54.780Z,13.97
2019-04-04T03:14:24.910Z,14.67
2019-04-04T03:16:57.029Z,16.33
2019-04-04T03:19:26.566Z,15.63
2019-04-04T03:21:56.578Z,15.73
2019-04-04T03:24:26.558Z,15.73
2019-04-04T03:26:56.508Z,15.20
2019-04-04T03:29:26.720Z,14.23
2019-04-04T03:31:56.615Z,16.37
2019-04-04T03:34:26.548Z,16.00
2019-04-04T03:36:56.550Z,16.50
2019-04-04T03:39:26.612Z,15.10
2019-04-04T03:41:56.555Z,15.53
2019-04-04T03:44:26.514Z,15.87
2019-04-04T03:46:56.530Z,16.50
2019-04-04T03:49:26.575Z,16.50
2019-04-04T03:51:56.447Z,17.07
2019-04-04T03:54:28.163Z,16.53
2019-04-04T03:56:58.088Z,16.60
2019-04-04T03:59:29.615Z,16.00
2019-04-04T04:01:59.408Z,18.03
2019-04-04T04:04:29.378Z,16.57
2019-04-04T04:06:59.201Z,15.73
2019-04-04T04:09:29.163Z,15.30
2019-04-04T04:11:58.976Z,17.63
2019-04-04T04:14:28.871Z,17.23
2019-04-04T04:16:58.967Z,17.27
2019-04-04T04:19:30.930Z,16.87
2019-04-04T04:22:00.455Z,17.63
2019-04-04T04:24:30.504Z,17.77
2019-04-04T04:27:00.505Z,17.63
2019-04-04T04:29:30.824Z,18.33
2019-04-04T04:32:00.973Z,16.93
2019-04-04T04:34:34.038Z,17.57
2019-04-04T04:37:02.546Z,17.03
2019-04-04T04:39:36.101Z,18.43
2019-04-04T04:42:04.206Z,18.73
2019-04-04T04:44:37.683Z,17.23
2019-04-04T04:47:05.866Z,16.70
2019-04-04T04:49:36.385Z,16.33
2019-04-04T04:52:06.594Z,17.67
2019-04-04T04:54:36.820Z,18.13
2019-04-04T04:57:06.793Z,16.23
2019-04-04T04:59:36.906Z,16.03
2019-04-04T05:02:06.920Z,15.90
2019-04-04T05:04:36.720Z,16.83
2019-04-04T05:07:07.353Z,16.60
2019-04-04T05:09:38.084Z,15.30
2019-04-04T05:12:09.812Z,16.20
2019-04-04T05:14:45.756Z,16.57
2019-04-04T05:17:18.522Z,15.73
2019-04-04T05:19:53.537Z,15.80
2019-04-04T05:22:31.560Z,15.73
2019-04-04T05:25:08.317Z,14.63
2019-04-04T05:27:38.081Z,16.33
2019-04-04T05:30:15.909Z,13.80
2019-04-04T05:32:46.836Z,14.93
2019-04-04T05:38:36.798Z,14.80
2019-04-04T05:41:11.181Z,14.80
2019-04-04T05:43:41.501Z,14.40
2019-04-04T05:46:19.083Z,15.13
2019-04-04T05:48:50.024Z,15.67
2019-04-04T05:51:21.799Z,15.33
2019-04-04T05:53:54.461Z,15.87
2019-04-04T05:56:28.140Z,14.60
2019-04-04T05:59:02.431Z,14.83
2019-04-04T06:01:35.327Z,13.53
2019-04-04T06:04:08.810Z,14.17
2019-04-04T06:06:47.705Z,14.60
2019-04-04T06:09:19.494Z,15.83
2019-04-04T06:11:53.820Z,14.23
2019-04-04T06:14:40.323Z,14.20
2019-04-04T06:17:10.912Z,14.03
2019-04-04T06:19:46.808Z,13.73
2019-04-04T06:22:20.801Z,14.83
2019-04-04T06:24:52.107Z,14.03
2019-04-04T06:27:31.320Z,13.43
2019-04-04T06:30:09.250Z,14.23
2019-04-04T06:32:44.239Z,14.20
2019-04-04T06:35:15.447Z,13.77
2019-04-04T06:37:51.408Z,13.57
2019-04-04T06:40:23.517Z,14.87
2019-04-04T06:42:54.393Z,13.50
2019-04-04T06:45:24.720Z,14.13
2019-04-04T06:47:57.628Z,13.80
2019-04-04T06:50:27.406Z,13.07
2019-04-04T06:53:00.450Z,13.97
2019-04-04T06:55:31.746Z,13.07
2019-04-04T06:58:17.029Z,13.60
2019-04-04T07:00:48.481Z,13.30
2019-04-04T07:03:17.748Z,13.83
2019-04-04T07:05:48.384Z,12.97
2019-04-04T07:08:18.787Z,12.03
2019-04-04T07:10:57.741Z,12.90
2019-04-04T07:13:24.455Z,13.50
2019-04-04T07:16:06.359Z,12.23
2019-04-04T07:18:31.007Z,12.67
2019-04-04T07:21:03.655Z,12.83
2019-04-04T07:23:34.524Z,13.07
2019-04-04T07:26:05.436Z,12.77
2019-04-04T07:28:35.895Z,13.03
2019-04-04T07:31:07.279Z,12.83
2019-04-04T07:33:38.511Z,12.60
2019-04-04T07:36:13.159Z,11.97
2019-04-04T07:38:43.398Z,13.10
2019-04-04T07:41:14.888Z,12.43
2019-04-04T07:43:46.003Z,12.40
2019-04-04T07:46:17.251Z,11.57
2019-04-04T07:48:49.296Z,11.57
2019-04-04T07:51:19.359Z,13.30
2019-04-04T07:53:55.896Z,12.53
2019-04-04T07:56:26.323Z,12.27
2019-04-04T07:58:57.499Z,11.33
2019-04-04T08:01:28.740Z,12.70
2019-04-04T08:04:02.970Z,11.60
2019-04-04T08:06:33.008Z,12.17
2019-04-04T08:09:03.094Z,11.17
2019-04-04T08:11:33.229Z,11.57
2019-04-04T08:14:04.628Z,12.50
2019-04-04T08:16:37.387Z,12.33
2019-04-04T08:19:07.305Z,12.37
2019-04-04T08:21:37.581Z,12.37
2019-04-04T08:24:15.514Z,13.27
2019-04-04T08:26:46.068Z,13.33
2019-04-04T08:29:22.695Z,13.83
2019-04-04T08:31:53.124Z,12.67
2019-04-04T08:34:31.357Z,13.83
2019-04-04T08:37:02.659Z,14.57
2019-04-04T08:39:33.537Z,13.73
2019-04-04T08:42:06.551Z,14.40
2019-04-04T08:44:44.148Z,13.77
2019-04-04T08:47:16.213Z,14.17
2019-04-04T08:49:46.319Z,13.97
2019-04-04T08:52:20.813Z,13.93
2019-04-04T08:54:50.652Z,13.17
2019-04-04T08:57:31.380Z,14.67
2019-04-04T09:00:02.161Z,13.87
2019-04-04T09:02:36.147Z,12.10
2019-04-04T09:05:12.305Z,13.40
2019-04-04T09:07:38.935Z,12.33
2019-04-04T09:10:10.049Z,12.77
2019-04-04T09:12:50.357Z,11.87
2019-04-04T09:15:20.524Z,13.03
2019-04-04T09:17:50.494Z,12.73
2019-04-04T09:20:20.627Z,12.77
2019-04-04T09:22:50.700Z,11.83
2019-04-04T09:25:21.666Z,13.33
2019-04-04T09:27:52.186Z,12.63
2019-04-04T09:30:23.049Z,11.83
2019-04-04T09:32:53.357Z,12.47
2019-04-04T09:35:25.826Z,12.57
2019-04-04T09:37:56.112Z,12.27
2019-04-04T09:40:30.951Z,11.60
2019-04-04T09:43:03.276Z,12.10
2019-04-04T09:45:36.786Z,11.80
2019-04-04T09:48:07.517Z,12.27
2019-04-04T09:50:40.588Z,12.63
2019-04-04T09:53:10.571Z,11.37
2019-04-04T09:55:44.487Z,14.23
2019-04-04T09:58:17.539Z,14.13
2019-04-04T10:00:49.331Z,14.33
2019-04-04T10:03:19.964Z,14.00
2019-04-04T10:05:51.270Z,11.90
2019-04-04T10:08:21.700Z,14.83
2019-04-04T10:10:52.325Z,13.13
2019-04-04T10:13:41.767Z,14.27
2019-04-04T10:16:11.992Z,13.53
2019-04-04T10:18:43.794Z,14.63
2019-04-04T10:21:14.757Z,14.20
2019-04-04T10:23:45.868Z,14.03
2019-04-04T10:26:21.530Z,14.00
2019-04-04T10:28:52.122Z,14.00
2019-04-04T10:31:22.133Z,13.53
2019-04-04T10:33:52.252Z,13.70
2019-04-04T10:36:22.677Z,12.97
2019-04-04T10:38:53.956Z,13.67
2019-04-04T10:41:43.826Z,13.33
2019-04-04T10:44:13.867Z,13.33
2019-04-04T10:46:50.188Z,13.47
2019-04-04T10:49:27.057Z,13.37
2019-04-04T10:51:57.424Z,13.37
2019-04-04T10:54:32.215Z,13.57
2019-04-04T10:57:02.634Z,13.13
2019-04-04T11:00:03.221Z,13.83
2019-04-04T11:02:33.254Z,12.80
2019-04-04T11:05:03.243Z,12.00
2019-04-04T11:07:56.813Z,13.40
2019-04-04T11:10:27.739Z,11.87
2019-04-04T11:12:58.352Z,11.97
2019-04-04T11:15:28.723Z,10.07
2019-04-04T11:18:19.900Z,11.47
2019-04-04T11:20:49.861Z,11.60
2019-04-04T11:23:20.055Z,10.23
2019-04-04T11:25:51.015Z,11.47
2019-04-04T11:28:22.819Z,11.60
2019-04-04T11:30:53.304Z,9.63
2019-04-04T11:33:30.572Z,9.87
2019-04-04T11:36:00.906Z,10.10
2019-04-04T11:38:30.981Z,9.93
2019-04-04T11:41:01.560Z,10.40
2019-04-04T11:43:31.887Z,9.57
2019-04-04T11:46:02.512Z,10.23
2019-04-04T11:48:32.877Z,9.00
2019-04-04T11:51:03.163Z,8.73
2019-04-04T11:53:34.601Z,8.50
2019-04-04T11:56:05.693Z,9.57
2019-04-04T11:58:35.948Z,8.70
2019-04-04T12:01:09.501Z,10.77
2019-04-04T12:03:39.908Z,8.97
2019-04-04T12:06:11.135Z,9.27
2019-04-04T12:08:42.440Z,8.43
2019-04-04T12:11:15.947Z,8.93
2019-04-04T12:14:08.125Z,8.97
2019-04-04T12:16:47.725Z,8.10
2019-04-04T12:19:18.203Z,8.43
2019-04-04T12:21:48.180Z,7.83
2019-04-04T12:24:18.171Z,6.87
2019-04-04T12:26:48.072Z,7.27
2019-04-04T12:29:17.947Z,8.03
2019-04-04T12:31:47.836Z,7.60
2019-04-04T12:34:52.950Z,8.10
2019-04-04T12:37:22.913Z,7.60
2019-04-04T12:39:54.077Z,7.80
2019-04-04T12:42:24.743Z,7.83
2019-04-04T12:44:58.525Z,7.03
2019-04-04T12:47:28.562Z,6.90
2019-04-04T12:49:58.664Z,7.13
2019-04-04T12:52:28.631Z,6.37
2019-04-04T12:54:58.839Z,5.73
2019-04-04T12:57:29.942Z,6.23
2019-04-04T13:00:07.250Z,7.07
2019-04-04T13:02:37.143Z,6.13
2019-04-04T13:05:11.296Z,6.93
2019-04-04T13:07:41.466Z,6.60
2019-04-04T13:10:12.243Z,6.93
2019-04-04T13:12:53.368Z,6.17
2019-04-04T13:15:22.258Z,6.63
2019-04-04T13:17:52.567Z,5.73
2019-04-04T13:20:49.561Z,6.00
2019-04-04T13:23:19.529Z,6.27
2019-04-04T13:25:50.724Z,6.83
2019-04-04T13:28:20.908Z,6.00
2019-04-04T13:30:50.831Z,6.20
2019-04-04T13:33:22.462Z,6.07
2019-04-04T13:35:52.372Z,6.60
2019-04-04T13:38:22.346Z,7.00
2019-04-04T13:40:52.417Z,6.40
2019-04-04T13:43:23.229Z,6.10
2019-04-04T13:46:36.729Z,5.83
2019-04-04T13:49:06.747Z,5.63
2019-04-04T13:51:50.818Z,5.87
2019-04-04T13:54:20.680Z,6.17
2019-04-04T13:57:10.578Z,5.40
2019-04-04T13:59:40.473Z,6.13
2019-04-04T14:02:29.475Z,5.27
2019-04-04T14:05:09.189Z,5.37
2019-04-04T14:07:33.925Z,5.50
2019-04-04T14:10:03.411Z,5.83
2019-04-04T14:12:39.177Z,5.67
2019-04-04T14:15:14.931Z,5.57
2019-04-04T14:17:48.364Z,5.20
2019-04-04T14:20:18.597Z,5.17
2019-04-04T14:22:59.062Z,4.83
2019-04-04T14:25:40.338Z,5.07
2019-04-04T14:28:09.688Z,5.07
2019-04-04T14:30:39.595Z,4.83
2019-04-04T14:33:11.791Z,5.70
2019-04-04T14:35:41.807Z,6.43
2019-04-04T14:38:12.363Z,5.10
2019-04-04T14:40:42.931Z,4.80
2019-04-04T14:43:12.913Z,4.90
2019-04-04T14:45:42.967Z,5.00
2019-04-04T14:48:13.014Z,4.77
2019-04-04T14:50:42.987Z,4.83
2019-04-04T14:53:12.886Z,5.10
2019-04-04T14:55:43.294Z,4.57
2019-04-04T14:58:15.485Z,4.87
2019-04-04T15:00:45.637Z,4.63
2019-04-04T15:03:15.645Z,3.90
2019-04-04T15:06:23.779Z,4.73
2019-04-04T15:08:53.755Z,4.63
2019-04-04T15:11:24.636Z,4.33
2019-04-04T15:13:54.852Z,4.60
2019-04-04T15:16:25.899Z,5.47
2019-04-04T15:19:03.063Z,4.73
2019-04-04T15:25:23.065Z,4.70
2019-04-04T15:28:10.258Z,3.70
2019-04-04T15:30:40.123Z,3.73
2019-04-04T15:33:10.548Z,4.50
2019-04-04T15:35:41.174Z,4.17
2019-04-04T15:38:11.198Z,4.53
2019-04-04T15:40:41.410Z,3.70
2019-04-04T15:43:30.379Z,4.40
2019-04-04T15:46:00.574Z,4.03
2019-04-04T15:48:56.725Z,4.20
2019-04-04T15:51:26.563Z,4.53
2019-04-04T15:53:57.104Z,5.63
2019-04-04T15:56:27.026Z,5.60
2019-04-04T15:58:57.034Z,5.57
2019-04-04T16:01:26.966Z,5.47
2019-04-04T16:04:15.921Z,5.70
2019-04-04T16:06:54.211Z,5.20
2019-04-04T16:09:24.086Z,5.20
2019-04-04T16:11:54.181Z,5.23
2019-04-04T16:14:24.036Z,5.20
2019-04-04T16:17:03.875Z,5.77
2019-04-04T16:19:33.856Z,5.60
2019-04-04T16:22:09.986Z,5.07
2019-04-04T16:24:39.848Z,5.37
2019-04-04T16:27:09.712Z,5.13
2019-04-04T16:29:39.756Z,5.93
2019-04-04T16:32:09.800Z,5.03
2019-04-04T16:34:39.774Z,4.83
2019-04-04T16:37:09.785Z,4.67
2019-04-04T16:39:39.605Z,5.27
2019-04-04T16:42:09.529Z,5.13
2019-04-04T16:44:46.841Z,5.20
2019-04-04T16:47:33.596Z,4.60
2019-04-04T16:50:03.542Z,5.67
2019-04-04T16:52:33.577Z,5.00
2019-04-04T16:55:43.438Z,8.13
2019-04-04T16:59:05.507Z,7.87
2019-04-04T17:01:50.308Z,6.37
2019-04-04T17:08:19.013Z,5.77
2019-04-04T17:10:49.265Z,5.07
2019-04-04T17:13:22.631Z,5.30
2019-04-04T17:15:52.588Z,5.90
2019-04-04T17:18:22.619Z,6.20
2019-04-04T17:20:53.018Z,5.63
2019-04-04T17:23:27.468Z,5.83
2019-04-04T17:25:57.370Z,5.60
2019-04-04T17:28:27.276Z,5.87
2019-04-04T17:30:57.114Z,6.20
2019-04-04T17:33:27.582Z,5.70
2019-04-04T17:35:59.321Z,5.23
2019-04-04T17:38:29.559Z,5.33
2019-04-04T17:40:59.936Z,5.87
2019-04-04T17:43:30.139Z,5.83
2019-04-04T17:46:20.649Z,5.27
2019-04-04T17:49:02.171Z,5.30
2019-04-04T17:51:49.714Z,5.57
2019-04-04T17:54:18.756Z,5.03
2019-04-04T17:56:49.103Z,5.37
2019-04-04T17:59:19.150Z,6.17
2019-04-04T18:01:49.303Z,5.50
2019-04-04T18:04:19.406Z,5.80
2019-04-04T18:07:05.284Z,5.27
2019-04-04T18:09:36.628Z,5.50
2019-04-04T18:12:06.630Z,5.50
2019-04-04T18:14:36.491Z,5.07
2019-04-04T18:17:06.987Z,5.47
2019-04-04T18:19:36.953Z,5.90
2019-04-04T18:22:06.811Z,5.30
2019-04-04T18:24:36.668Z,5.47
2019-04-04T18:27:06.954Z,6.20
2019-04-04T18:29:45.110Z,5.00
2019-04-04T18:32:37.807Z,5.93
2019-04-04T18:35:14.260Z,5.70
2019-04-04T18:38:05.699Z,6.03
2019-04-04T18:40:51.650Z,5.47
2019-04-04T18:43:21.698Z,6.50
2019-04-04T18:45:52.858Z,5.73
2019-04-04T18:48:22.753Z,6.00
2019-04-04T18:50:52.625Z,6.30
2019-04-04T18:53:22.611Z,5.57
2019-04-04T18:55:52.473Z,6.47
2019-04-04T18:58:22.949Z,6.53
2019-04-04T19:01:02.063Z,7.13
2019-04-04T19:03:32.225Z,6.33
2019-04-04T19:06:02.168Z,6.80
2019-04-04T19:08:35.715Z,5.90
2019-04-04T19:11:05.701Z,6.60
2019-04-04T19:13:43.994Z,5.60
2019-04-04T19:16:08.550Z,7.40
2019-04-04T19:18:38.509Z,6.93
2019-04-04T19:21:08.526Z,7.50
2019-04-04T19:23:48.540Z,6.83
2019-04-04T19:26:10.943Z,6.90
2019-04-04T19:28:40.863Z,6.43
2019-04-04T19:31:10.837Z,6.60
2019-04-04T19:33:40.806Z,7.27
2019-04-04T19:36:10.712Z,6.53
2019-04-04T19:38:40.567Z,6.83
2019-04-04T19:41:10.876Z,7.60
2019-04-04T19:43:40.734Z,6.50
2019-04-04T19:46:10.627Z,7.53
2019-04-04T19:48:41.105Z,7.53
2019-04-04T19:51:14.544Z,7.00
2019-04-04T19:53:44.528Z,7.03
2019-04-04T19:56:14.358Z,6.40
2019-04-04T19:58:44.678Z,6.97
2019-04-04T20:01:16.287Z,7.00
2019-04-04T20:03:46.121Z,7.13
2019-04-04T20:06:19.588Z,7.50
2019-04-04T20:08:53.295Z,7.30
2019-04-04T20:11:21.739Z,7.67
2019-04-04T20:13:52.295Z,7.80
2019-04-04T20:16:23.401Z,7.57
2019-04-04T20:19:01.479Z,7.80
2019-04-04T20:21:31.847Z,7.10
2019-04-04T20:24:02.035Z,7.27
2019-04-04T20:26:32.129Z,7.27
2019-04-04T20:29:02.031Z,8.00
2019-04-04T20:31:31.974Z,6.63
2019-04-04T20:34:05.646Z,7.23
2019-04-04T20:36:33.359Z,6.70
2019-04-04T20:39:04.818Z,7.93
2019-04-04T20:41:34.860Z,7.87
2019-04-04T20:44:04.897Z,7.47
2019-04-04T20:46:34.901Z,7.47
2019-04-04T20:49:04.965Z,7.80
2019-04-04T20:51:35.287Z,7.27
2019-04-04T20:54:05.767Z,8.70
2019-04-04T20:56:35.691Z,8.37
2019-04-04T20:59:05.920Z,7.80
2019-04-04T21:01:35.810Z,7.30
2019-04-04T21:04:05.796Z,7.43
2019-04-04T21:06:35.698Z,7.30
2019-04-04T21:09:07.888Z,7.83
2019-04-04T21:11:37.763Z,7.60
2019-04-04T21:14:07.621Z,8.27
2019-04-04T21:16:37.523Z,7.87
2019-04-04T21:19:08.783Z,7.77
2019-04-04T21:21:38.722Z,8.13
2019-04-04T21:24:08.623Z,8.20
2019-04-04T21:26:38.624Z,7.93
2019-04-04T21:29:08.569Z,7.40
2019-04-04T21:31:38.469Z,8.10
2019-04-04T21:34:08.431Z,8.43
2019-04-04T21:36:38.352Z,8.23
2019-04-04T21:39:09.021Z,7.33
2019-04-04T21:41:38.963Z,7.43
2019-04-04T21:44:09.441Z,8.10
2019-04-04T21:46:39.623Z,8.00
2019-04-04T21:49:09.619Z,7.57
2019-04-04T21:51:39.721Z,7.60
2019-04-04T21:54:09.555Z,8.33
2019-04-04T21:56:39.421Z,7.90
2019-04-04T21:59:09.329Z,8.00
2019-04-04T22:01:39.506Z,7.13
2019-04-04T22:04:09.462Z,9.43
2019-04-04T22:06:39.449Z,8.43
2019-04-04T22:09:15.443Z,8.43
2019-04-04T22:11:45.472Z,8.00
2019-04-04T22:14:21.545Z,8.67
2019-04-04T22:16:46.856Z,8.00
2019-04-04T22:19:16.724Z,8.53
2019-04-04T22:21:46.687Z,7.93
2019-04-04T22:24:16.783Z,8.13
2019-04-04T22:26:46.800Z,8.03
2019-04-04T22:29:16.591Z,7.60
2019-04-04T22:31:46.711Z,7.70
2019-04-04T22:34:16.635Z,8.03
2019-04-04T22:36:46.566Z,9.07
2019-04-04T22:39:16.518Z,8.70
2019-04-04T22:41:46.410Z,9.30
2019-04-04T22:44:16.274Z,8.33
2019-04-04T22:46:46.241Z,8.97
2019-04-04T22:49:17.289Z,9.43
2019-04-04T22:51:47.230Z,8.90
2019-04-04T22:54:17.133Z,9.03
2019-04-04T22:56:47.206Z,9.10
2019-04-04T22:59:17.096Z,9.23
2019-04-04T23:01:46.971Z,9.30
2019-04-04T23:04:17.013Z,9.47
2019-04-04T23:06:46.936Z,9.30
2019-04-04T23:09:16.777Z,9.33
2019-04-04T23:11:46.634Z,8.67
2019-04-04T23:14:16.601Z,9.20
2019-04-04T23:16:46.496Z,9.07
2019-04-04T23:19:16.496Z,8.80
2019-04-04T23:21:46.488Z,10.47
2019-04-04T23:24:16.348Z,9.67
2019-04-04T23:26:46.333Z,9.00
2019-04-04T23:29:16.251Z,10.60
2019-04-04T23:31:46.210Z,9.80
2019-04-04T23:34:16.055Z,11.67
2019-04-04T23:36:45.975Z,10.63
2019-04-04T23:39:16.158Z,9.63
2019-04-04T23:41:46.067Z,10.20
2019-04-04T23:44:15.928Z,10.20
2019-04-04T23:46:45.779Z,11.53
2019-04-04T23:49:15.643Z,10.80
2019-04-04T23:51:45.443Z,11.80
2019-04-04T23:54:15.375Z,10.47
2019-04-04T23:56:45.329Z,11.27
2019-04-04T23:59:15.229Z,11.30
